sensor_id;sensor_type;location;lat;lon;timestamp;temperature;humidity
37285;DHT22;23172;53.550;9.964;2024-02-23T00:02:31;11.70;81.30
37285;DHT22;23172;53.550;9.964;2024-02-23T00:07:33;11.70;81.40
37285;DHT22;23172;53.550;9.964;2024-02-23T00:12:36;11.70;81.50
37285;DHT22;23172;53.550;9.964;2024-02-23T00:17:38;11.70;82.20
37285;DHT22;23172;53.550;9.964;2024-02-23T00:22:40;11.70;82.90
37285;DHT22;23172;53.550;9.964;2024-02-23T00:27:43;11.60;83.60
37285;DHT22;23172;53.550;9.964;2024-02-23T00:32:45;11.50;83.20
37285;DHT22;23172;53.550;9.964;2024-02-23T00:37:47;11.40;82.10
37285;DHT22;23172;53.550;9.964;2024-02-23T00:42:50;11.30;79.30
37285;DHT22;23172;53.550;9.964;2024-02-23T00:47:52;11.20;78.70
37285;DHT22;23172;53.550;9.964;2024-02-23T00:52:54;11.20;78.60
37285;DHT22;23172;53.550;9.964;2024-02-23T00:57:57;11.10;86.00
37285;DHT22;23172;53.550;9.964;2024-02-23T01:03:00;10.70;90.80
37285;DHT22;23172;53.550;9.964;2024-02-23T01:08:02;10.40;93.10
37285;DHT22;23172;53.550;9.964;2024-02-23T01:13:05;10.20;94.00
37285;DHT22;23172;53.550;9.964;2024-02-23T01:18:07;10.00;94.70
37285;DHT22;23172;53.550;9.964;2024-02-23T01:23:09;9.90;95.60
37285;DHT22;23172;53.550;9.964;2024-02-23T01:28:12;9.70;95.90
37285;DHT22;23172;53.550;9.964;2024-02-23T01:33:14;9.70;96.20
37285;DHT22;23172;53.550;9.964;2024-02-23T01:38:16;9.60;96.50
37285;DHT22;23172;53.550;9.964;2024-02-23T01:43:22;9.60;96.70
37285;DHT22;23172;53.550;9.964;2024-02-23T01:48:24;9.60;96.70
37285;DHT22;23172;53.550;9.964;2024-02-23T01:53:27;9.60;96.70
37285;DHT22;23172;53.550;9.964;2024-02-23T01:58:33;9.60;96.80
37285;DHT22;23172;53.550;9.964;2024-02-23T02:03:38;9.60;96.30
37285;DHT22;23172;53.550;9.964;2024-02-23T02:08:40;9.50;95.70
37285;DHT22;23172;53.550;9.964;2024-02-23T02:13:43;9.50;94.90
37285;DHT22;23172;53.550;9.964;2024-02-23T02:18:45;9.40;94.40
37285;DHT22;23172;53.550;9.964;2024-02-23T02:23:47;9.40;93.70
37285;DHT22;23172;53.550;9.964;2024-02-23T02:28:50;9.30;93.90
37285;DHT22;23172;53.550;9.964;2024-02-23T02:33:53;9.30;94.30
37285;DHT22;23172;53.550;9.964;2024-02-23T02:38:54;9.20;94.40
37285;DHT22;23172;53.550;9.964;2024-02-23T02:43:58;9.20;94.50
37285;DHT22;23172;53.550;9.964;2024-02-23T02:48:59;9.10;94.90
37285;DHT22;23172;53.550;9.964;2024-02-23T02:54:01;8.90;95.50
37285;DHT22;23172;53.550;9.964;2024-02-23T02:59:04;8.80;96.00
37285;DHT22;23172;53.550;9.964;2024-02-23T03:04:08;8.90;96.30
37285;DHT22;23172;53.550;9.964;2024-02-23T03:09:10;8.80;96.10
37285;DHT22;23172;53.550;9.964;2024-02-23T03:14:13;8.70;96.10
37285;DHT22;23172;53.550;9.964;2024-02-23T03:19:15;8.70;95.90
37285;DHT22;23172;53.550;9.964;2024-02-23T03:24:17;8.60;95.90
37285;DHT22;23172;53.550;9.964;2024-02-23T03:29:20;8.60;95.70
37285;DHT22;23172;53.550;9.964;2024-02-23T03:34:24;8.60;95.70
37285;DHT22;23172;53.550;9.964;2024-02-23T03:39:26;8.50;95.00
37285;DHT22;23172;53.550;9.964;2024-02-23T03:44:30;8.40;95.10
37285;DHT22;23172;53.550;9.964;2024-02-23T03:49:32;8.30;95.10
37285;DHT22;23172;53.550;9.964;2024-02-23T03:54:34;8.30;95.50
37285;DHT22;23172;53.550;9.964;2024-02-23T03:59:37;8.30;95.40
37285;DHT22;23172;53.550;9.964;2024-02-23T04:04:39;8.20;95.20
37285;DHT22;23172;53.550;9.964;2024-02-23T04:09:41;8.20;94.90
37285;DHT22;23172;53.550;9.964;2024-02-23T04:14:44;8.10;94.40
37285;DHT22;23172;53.550;9.964;2024-02-23T04:19:46;8.10;94.80
37285;DHT22;23172;53.550;9.964;2024-02-23T04:24:48;8.10;95.00
37285;DHT22;23172;53.550;9.964;2024-02-23T04:29:51;8.10;94.80
37285;DHT22;23172;53.550;9.964;2024-02-23T04:34:53;8.20;94.70
37285;DHT22;23172;53.550;9.964;2024-02-23T04:39:54;8.10;94.70
37285;DHT22;23172;53.550;9.964;2024-02-23T04:44:58;8.20;94.70
37285;DHT22;23172;53.550;9.964;2024-02-23T04:50:00;8.20;95.10
37285;DHT22;23172;53.550;9.964;2024-02-23T04:55:04;8.10;94.80
37285;DHT22;23172;53.550;9.964;2024-02-23T05:00:08;8.20;95.00
37285;DHT22;23172;53.550;9.964;2024-02-23T05:05:10;8.10;94.70
37285;DHT22;23172;53.550;9.964;2024-02-23T05:10:13;8.10;95.10
37285;DHT22;23172;53.550;9.964;2024-02-23T05:15:17;8.10;95.30
37285;DHT22;23172;53.550;9.964;2024-02-23T05:20:18;8.10;95.30
37285;DHT22;23172;53.550;9.964;2024-02-23T05:25:20;8.10;95.20
37285;DHT22;23172;53.550;9.964;2024-02-23T05:30:23;8.10;95.00
37285;DHT22;23172;53.550;9.964;2024-02-23T05:35:27;8.00;94.90
37285;DHT22;23172;53.550;9.964;2024-02-23T05:40:29;7.90;95.00
37285;DHT22;23172;53.550;9.964;2024-02-23T05:45:32;7.90;95.20
37285;DHT22;23172;53.550;9.964;2024-02-23T05:50:34;7.90;95.20
37285;DHT22;23172;53.550;9.964;2024-02-23T05:55:36;7.90;95.00
37285;DHT22;23172;53.550;9.964;2024-02-23T06:00:39;7.90;94.70
37285;DHT22;23172;53.550;9.964;2024-02-23T06:05:41;7.90;94.60
37285;DHT22;23172;53.550;9.964;2024-02-23T06:10:43;7.80;94.40
37285;DHT22;23172;53.550;9.964;2024-02-23T06:15:46;7.90;93.80
37285;DHT22;23172;53.550;9.964;2024-02-23T06:20:49;7.80;93.70
37285;DHT22;23172;53.550;9.964;2024-02-23T06:25:51;7.80;93.90
37285;DHT22;23172;53.550;9.964;2024-02-23T06:30:54;7.80;93.80
37285;DHT22;23172;53.550;9.964;2024-02-23T06:35:56;7.80;93.50
37285;DHT22;23172;53.550;9.964;2024-02-23T06:40:58;7.80;93.40
37285;DHT22;23172;53.550;9.964;2024-02-23T06:46:06;7.70;93.30
37285;DHT22;23172;53.550;9.964;2024-02-23T06:51:08;7.70;93.50
37285;DHT22;23172;53.550;9.964;2024-02-23T06:56:10;7.80;93.80
37285;DHT22;23172;53.550;9.964;2024-02-23T07:01:14;7.80;93.50
37285;DHT22;23172;53.550;9.964;2024-02-23T07:06:16;7.80;93.70
37285;DHT22;23172;53.550;9.964;2024-02-23T07:11:19;7.80;93.90
37285;DHT22;23172;53.550;9.964;2024-02-23T07:16:22;7.90;94.00
37285;DHT22;23172;53.550;9.964;2024-02-23T07:21:24;7.90;94.10
37285;DHT22;23172;53.550;9.964;2024-02-23T07:26:26;8.00;94.10
37285;DHT22;23172;53.550;9.964;2024-02-23T07:31:31;8.10;94.00
37285;DHT22;23172;53.550;9.964;2024-02-23T07:36:33;8.10;93.90
37285;DHT22;23172;53.550;9.964;2024-02-23T07:41:35;8.10;94.10
37285;DHT22;23172;53.550;9.964;2024-02-23T07:46:38;8.20;94.30
37285;DHT22;23172;53.550;9.964;2024-02-23T07:51:40;8.30;94.10
37285;DHT22;23172;53.550;9.964;2024-02-23T07:56:42;8.30;94.10
37285;DHT22;23172;53.550;9.964;2024-02-23T08:01:45;8.40;93.60
37285;DHT22;23172;53.550;9.964;2024-02-23T08:06:47;8.40;92.80
37285;DHT22;23172;53.550;9.964;2024-02-23T08:11:49;8.40;92.50
37285;DHT22;23172;53.550;9.964;2024-02-23T08:16:53;8.40;92.60
37285;DHT22;23172;53.550;9.964;2024-02-23T08:21:55;8.50;91.60
37285;DHT22;23172;53.550;9.964;2024-02-23T08:26:57;8.50;91.20
37285;DHT22;23172;53.550;9.964;2024-02-23T08:32:01;8.60;91.30
37285;DHT22;23172;53.550;9.964;2024-02-23T08:37:03;8.60;90.40
37285;DHT22;23172;53.550;9.964;2024-02-23T08:42:05;8.70;90.10
37285;DHT22;23172;53.550;9.964;2024-02-23T08:47:08;8.80;90.00
37285;DHT22;23172;53.550;9.964;2024-02-23T08:52:10;9.10;88.60
37285;DHT22;23172;53.550;9.964;2024-02-23T08:57:12;9.30;88.20
37285;DHT22;23172;53.550;9.964;2024-02-23T09:02:19;9.60;85.80
37285;DHT22;23172;53.550;9.964;2024-02-23T09:07:21;9.70;84.60
37285;DHT22;23172;53.550;9.964;2024-02-23T09:12:24;9.90;84.30
37285;DHT22;23172;53.550;9.964;2024-02-23T09:17:27;10.00;82.60
37285;DHT22;23172;53.550;9.964;2024-02-23T09:22:29;10.00;80.80
37285;DHT22;23172;53.550;9.964;2024-02-23T09:27:31;10.00;80.60
37285;DHT22;23172;53.550;9.964;2024-02-23T09:32:35;10.00;79.20
37285;DHT22;23172;53.550;9.964;2024-02-23T09:37:36;10.10;79.80
37285;DHT22;23172;53.550;9.964;2024-02-23T09:42:39;10.30;79.10
37285;DHT22;23172;53.550;9.964;2024-02-23T09:47:42;10.40;78.30
37285;DHT22;23172;53.550;9.964;2024-02-23T09:52:45;10.50;77.70
37285;DHT22;23172;53.550;9.964;2024-02-23T09:57:52;10.60;77.20
37285;DHT22;23172;53.550;9.964;2024-02-23T10:02:58;10.80;76.90
37285;DHT22;23172;53.550;9.964;2024-02-23T10:08:00;11.00;76.20
37285;DHT22;23172;53.550;9.964;2024-02-23T10:13:03;11.00;75.30
37285;DHT22;23172;53.550;9.964;2024-02-23T10:18:07;11.20;74.90
37285;DHT22;23172;53.550;9.964;2024-02-23T10:23:09;11.30;74.20
37285;DHT22;23172;53.550;9.964;2024-02-23T10:28:11;11.30;72.70
37285;DHT22;23172;53.550;9.964;2024-02-23T10:33:14;11.20;72.20
37285;DHT22;23172;53.550;9.964;2024-02-23T10:38:17;11.30;72.90
37285;DHT22;23172;53.550;9.964;2024-02-23T10:43:20;11.60;72.50
37285;DHT22;23172;53.550;9.964;2024-02-23T10:48:25;11.60;71.20
37285;DHT22;23172;53.550;9.964;2024-02-23T10:53:28;11.80;71.20
37285;DHT22;23172;53.550;9.964;2024-02-23T10:58:30;11.80;70.20
37285;DHT22;23172;53.550;9.964;2024-02-23T11:03:36;11.70;69.30
37285;DHT22;23172;53.550;9.964;2024-02-23T11:08:39;11.70;69.80
37285;DHT22;23172;53.550;9.964;2024-02-23T11:13:43;11.80;69.70
37285;DHT22;23172;53.550;9.964;2024-02-23T11:18:46;11.80;68.20
37285;DHT22;23172;53.550;9.964;2024-02-23T11:23:48;11.70;67.60
37285;DHT22;23172;53.550;9.964;2024-02-23T11:28:52;11.60;67.90
37285;DHT22;23172;53.550;9.964;2024-02-23T11:33:57;11.50;67.40
37285;DHT22;23172;53.550;9.964;2024-02-23T11:39:00;11.40;67.60
37285;DHT22;23172;53.550;9.964;2024-02-23T11:44:04;11.30;67.50
37285;DHT22;23172;53.550;9.964;2024-02-23T11:49:10;11.50;67.70
37285;DHT22;23172;53.550;9.964;2024-02-23T11:54:12;11.70;67.70
37285;DHT22;23172;53.550;9.964;2024-02-23T11:59:15;11.80;66.90
37285;DHT22;23172;53.550;9.964;2024-02-23T12:04:18;11.80;66.40
37285;DHT22;23172;53.550;9.964;2024-02-23T12:09:20;11.70;66.00
37285;DHT22;23172;53.550;9.964;2024-02-23T12:14:22;11.60;65.60
37285;DHT22;23172;53.550;9.964;2024-02-23T12:19:25;11.50;65.20
37285;DHT22;23172;53.550;9.964;2024-02-23T12:24:27;11.50;66.10
37285;DHT22;23172;53.550;9.964;2024-02-23T12:29:29;11.50;65.40
37285;DHT22;23172;53.550;9.964;2024-02-23T12:34:33;11.40;64.60
37285;DHT22;23172;53.550;9.964;2024-02-23T12:39:34;11.30;64.50
37285;DHT22;23172;53.550;9.964;2024-02-23T12:44:36;11.20;64.60
37285;DHT22;23172;53.550;9.964;2024-02-23T12:49:40;11.30;64.70
37285;DHT22;23172;53.550;9.964;2024-02-23T12:54:42;11.40;64.60
37285;DHT22;23172;53.550;9.964;2024-02-23T12:59:43;11.50;63.80
37285;DHT22;23172;53.550;9.964;2024-02-23T13:04:47;11.50;63.30
37285;DHT22;23172;53.550;9.964;2024-02-23T13:09:50;11.50;63.10
37285;DHT22;23172;53.550;9.964;2024-02-23T13:14:52;11.60;63.20
37285;DHT22;23172;53.550;9.964;2024-02-23T13:19:55;11.70;63.00
37285;DHT22;23172;53.550;9.964;2024-02-23T13:24:57;11.70;62.80
37285;DHT22;23172;53.550;9.964;2024-02-23T13:29:59;11.70;62.10
37285;DHT22;23172;53.550;9.964;2024-02-23T13:35:02;11.70;61.90
37285;DHT22;23172;53.550;9.964;2024-02-23T13:40:06;11.50;61.00
37285;DHT22;23172;53.550;9.964;2024-02-23T13:45:10;11.50;62.10
37285;DHT22;23172;53.550;9.964;2024-02-23T13:50:18;11.40;62.10
37285;DHT22;23172;53.550;9.964;2024-02-23T13:55:20;11.40;63.10
37285;DHT22;23172;53.550;9.964;2024-02-23T14:00:22;11.30;62.40
37285;DHT22;23172;53.550;9.964;2024-02-23T14:05:25;11.30;62.60
37285;DHT22;23172;53.550;9.964;2024-02-23T14:10:28;11.30;62.40
37285;DHT22;23172;53.550;9.964;2024-02-23T14:15:30;11.20;62.30
37285;DHT22;23172;53.550;9.964;2024-02-23T14:20:33;11.20;61.70
37285;DHT22;23172;53.550;9.964;2024-02-23T14:25:35;11.20;62.00
37285;DHT22;23172;53.550;9.964;2024-02-23T14:30:37;11.30;62.20
37285;DHT22;23172;53.550;9.964;2024-02-23T14:35:42;11.50;62.30
37285;DHT22;23172;53.550;9.964;2024-02-23T14:40:44;11.60;61.30
37285;DHT22;23172;53.550;9.964;2024-02-23T14:45:46;11.60;61.40
37285;DHT22;23172;53.550;9.964;2024-02-23T14:50:49;11.60;61.50
37285;DHT22;23172;53.550;9.964;2024-02-23T14:55:51;11.70;61.30
37285;DHT22;23172;53.550;9.964;2024-02-23T15:00:54;11.70;61.20
37285;DHT22;23172;53.550;9.964;2024-02-23T15:05:57;11.70;61.60
37285;DHT22;23172;53.550;9.964;2024-02-23T15:10:59;11.70;61.30
37285;DHT22;23172;53.550;9.964;2024-02-23T15:16:01;11.60;61.10
37285;DHT22;23172;53.550;9.964;2024-02-23T15:21:05;11.50;61.10
37285;DHT22;23172;53.550;9.964;2024-02-23T15:26:06;11.30;60.90
37285;DHT22;23172;53.550;9.964;2024-02-23T15:31:08;11.30;61.50
37285;DHT22;23172;53.550;9.964;2024-02-23T15:36:12;11.30;61.50
37285;DHT22;23172;53.550;9.964;2024-02-23T15:41:16;11.30;61.70
37285;DHT22;23172;53.550;9.964;2024-02-23T15:46:18;11.30;61.80
37285;DHT22;23172;53.550;9.964;2024-02-23T15:51:21;11.30;61.70
37285;DHT22;23172;53.550;9.964;2024-02-23T15:56:23;11.20;61.60
37285;DHT22;23172;53.550;9.964;2024-02-23T16:01:25;11.30;61.90
37285;DHT22;23172;53.550;9.964;2024-02-23T16:06:28;11.10;61.60
37285;DHT22;23172;53.550;9.964;2024-02-23T16:11:34;11.10;62.00
37285;DHT22;23172;53.550;9.964;2024-02-23T16:16:37;11.10;62.00
37285;DHT22;23172;53.550;9.964;2024-02-23T16:21:41;11.10;62.30
37285;DHT22;23172;53.550;9.964;2024-02-23T16:26:43;11.10;62.40
37285;DHT22;23172;53.550;9.964;2024-02-23T16:31:45;11.10;62.40
37285;DHT22;23172;53.550;9.964;2024-02-23T16:36:48;11.10;62.40
37285;DHT22;23172;53.550;9.964;2024-02-23T16:41:52;11.00;62.70
37285;DHT22;23172;53.550;9.964;2024-02-23T16:46:54;11.00;62.70
37285;DHT22;23172;53.550;9.964;2024-02-23T16:51:58;11.00;63.00
37285;DHT22;23172;53.550;9.964;2024-02-23T16:56:59;11.00;63.10
37285;DHT22;23172;53.550;9.964;2024-02-23T17:02:01;11.00;63.20
37285;DHT22;23172;53.550;9.964;2024-02-23T17:07:04;11.00;63.30
37285;DHT22;23172;53.550;9.964;2024-02-23T17:12:07;11.10;64.30
37285;DHT22;23172;53.550;9.964;2024-02-23T17:17:09;10.90;67.40
37285;DHT22;23172;53.550;9.964;2024-02-23T17:22:12;10.70;71.20
37285;DHT22;23172;53.550;9.964;2024-02-23T17:27:14;10.50;71.90
37285;DHT22;23172;53.550;9.964;2024-02-23T17:32:16;10.40;72.40
37285;DHT22;23172;53.550;9.964;2024-02-23T17:37:19;10.30;73.10
37285;DHT22;23172;53.550;9.964;2024-02-23T17:42:22;10.30;73.30
37285;DHT22;23172;53.550;9.964;2024-02-23T17:47:24;10.20;74.00
37285;DHT22;23172;53.550;9.964;2024-02-23T17:52:27;10.20;74.30
37285;DHT22;23172;53.550;9.964;2024-02-23T17:57:29;10.20;74.60
37285;DHT22;23172;53.550;9.964;2024-02-23T18:02:31;10.20;74.70
37285;DHT22;23172;53.550;9.964;2024-02-23T18:07:34;10.10;75.00
37285;DHT22;23172;53.550;9.964;2024-02-23T18:12:36;10.10;75.50
37285;DHT22;23172;53.550;9.964;2024-02-23T18:17:38;10.00;75.60
37285;DHT22;23172;53.550;9.964;2024-02-23T18:22:41;10.00;75.60
37285;DHT22;23172;53.550;9.964;2024-02-23T18:27:43;10.00;75.90
37285;DHT22;23172;53.550;9.964;2024-02-23T18:32:45;10.00;75.90
37285;DHT22;23172;53.550;9.964;2024-02-23T18:37:48;10.00;75.90
37285;DHT22;23172;53.550;9.964;2024-02-23T18:42:50;10.10;75.90
37285;DHT22;23172;53.550;9.964;2024-02-23T18:47:52;10.10;75.50
37285;DHT22;23172;53.550;9.964;2024-02-23T18:52:55;10.10;75.50
37285;DHT22;23172;53.550;9.964;2024-02-23T18:57:57;10.10;75.30
37285;DHT22;23172;53.550;9.964;2024-02-23T19:02:59;10.10;75.10
37285;DHT22;23172;53.550;9.964;2024-02-23T19:08:03;10.00;75.00
37285;DHT22;23172;53.550;9.964;2024-02-23T19:13:05;10.00;75.30
37285;DHT22;23172;53.550;9.964;2024-02-23T19:18:07;9.90;75.60
37285;DHT22;23172;53.550;9.964;2024-02-23T19:23:10;9.90;75.70
37285;DHT22;23172;53.550;9.964;2024-02-23T19:28:12;9.90;76.00
37285;DHT22;23172;53.550;9.964;2024-02-23T19:33:14;9.80;76.10
37285;DHT22;23172;53.550;9.964;2024-02-23T19:38:17;9.80;76.40
37285;DHT22;23172;53.550;9.964;2024-02-23T19:43:19;9.80;76.70
37285;DHT22;23172;53.550;9.964;2024-02-23T19:48:21;9.70;76.70
37285;DHT22;23172;53.550;9.964;2024-02-23T19:53:24;9.70;76.90
37285;DHT22;23172;53.550;9.964;2024-02-23T19:58:26;9.70;78.20
37285;DHT22;23172;53.550;9.964;2024-02-23T20:03:28;9.70;77.60
37285;DHT22;23172;53.550;9.964;2024-02-23T20:08:31;9.60;78.00
37285;DHT22;23172;53.550;9.964;2024-02-23T20:13:33;9.60;78.10
37285;DHT22;23172;53.550;9.964;2024-02-23T20:18:35;9.60;78.30
37285;DHT22;23172;53.550;9.964;2024-02-23T20:23:38;9.70;78.50
37285;DHT22;23172;53.550;9.964;2024-02-23T20:28:41;9.60;78.50
37285;DHT22;23172;53.550;9.964;2024-02-23T20:33:43;9.50;78.90
37285;DHT22;23172;53.550;9.964;2024-02-23T20:38:47;9.50;79.30
37285;DHT22;23172;53.550;9.964;2024-02-23T20:43:49;9.50;79.90
37285;DHT22;23172;53.550;9.964;2024-02-23T20:48:50;9.50;80.20
37285;DHT22;23172;53.550;9.964;2024-02-23T20:53:54;9.40;80.70
37285;DHT22;23172;53.550;9.964;2024-02-23T20:58:56;9.40;81.10
37285;DHT22;23172;53.550;9.964;2024-02-23T21:39:20;9.30;81.70
37285;DHT22;23172;53.550;9.964;2024-02-23T21:44:22;9.10;86.10
37285;DHT22;23172;53.550;9.964;2024-02-23T21:49:24;9.00;86.30
37285;DHT22;23172;53.550;9.964;2024-02-23T21:54:27;9.00;86.80
37285;DHT22;23172;53.550;9.964;2024-02-23T21:59:29;9.00;87.00
37285;DHT22;23172;53.550;9.964;2024-02-23T22:04:31;8.90;87.70
37285;DHT22;23172;53.550;9.964;2024-02-23T22:09:35;9.00;87.70
37285;DHT22;23172;53.550;9.964;2024-02-23T22:14:37;9.00;87.10
37285;DHT22;23172;53.550;9.964;2024-02-23T22:19:39;9.00;87.20
37285;DHT22;23172;53.550;9.964;2024-02-23T22:24:46;9.10;87.00
37285;DHT22;23172;53.550;9.964;2024-02-23T22:29:51;9.10;86.20
37285;DHT22;23172;53.550;9.964;2024-02-23T22:34:53;9.20;85.40
37285;DHT22;23172;53.550;9.964;2024-02-23T22:39:56;9.20;84.60
37285;DHT22;23172;53.550;9.964;2024-02-23T22:44:58;9.30;84.30
37285;DHT22;23172;53.550;9.964;2024-02-23T22:50:00;9.40;84.10
37285;DHT22;23172;53.550;9.964;2024-02-23T22:55:04;9.40;84.20
37285;DHT22;23172;53.550;9.964;2024-02-23T23:00:07;9.50;83.90
37285;DHT22;23172;53.550;9.964;2024-02-23T23:05:10;9.60;83.40
37285;DHT22;23172;53.550;9.964;2024-02-23T23:10:14;9.50;82.40
37285;DHT22;23172;53.550;9.964;2024-02-23T23:15:15;9.50;81.80
37285;DHT22;23172;53.550;9.964;2024-02-23T23:20:17;9.50;81.70
37285;DHT22;23172;53.550;9.964;2024-02-23T23:25:21;9.40;81.70
37285;DHT22;23172;53.550;9.964;2024-02-23T23:30:23;9.40;81.80
37285;DHT22;23172;53.550;9.964;2024-02-23T23:35:25;9.30;81.60
37285;DHT22;23172;53.550;9.964;2024-02-23T23:40:28;9.40;81.50
37285;DHT22;23172;53.550;9.964;2024-02-23T23:45:30;9.30;82.20
37285;DHT22;23172;53.550;9.964;2024-02-23T23:50:32;9.30;81.00
37285;DHT22;23172;53.550;9.964;2024-02-23T23:55:35;9.30;80.90
